sensor_id;sensor_type;location;lat;lon;timestamp;P1;durP1;ratioP1;P2;durP2;ratioP2
48647;SDS011;34437;-33.956;151.076;2022-12-26T00:00:54;16.90;;;12.57;;
48647;SDS011;34437;-33.956;151.076;2022-12-26T00:03:18;13.15;;;11.02;;
48647;SDS011;34437;-33.956;151.076;2022-12-26T00:05:41;11.18;;;9.95;;
48647;SDS011;34437;-33.956;151.076;2022-12-26T00:08:03;12.68;;;9.82;;
48647;SDS011;34437;-33.956;151.076;2022-12-26T00:10:27;10.43;;;9.18;;
48647;SDS011;34437;-33.956;151.076;2022-12-26T00:12:50;9.20;;;7.72;;
48647;SDS011;34437;-33.956;151.076;2022-12-26T00:15:12;8.40;;;7.40;;
48647;SDS011;34437;-33.956;151.076;2022-12-26T00:17:35;7.97;;;6.78;;
48647;SDS011;34437;-33.956;151.076;2022-12-26T00:19:57;8.00;;;6.70;;
48647;SDS011;34437;-33.956;151.076;2022-12-26T00:22:19;7.97;;;6.93;;
48647;SDS011;34437;-33.956;151.076;2022-12-26T00:24:42;7.80;;;6.57;;
48647;SDS011;34437;-33.956;151.076;2022-12-26T00:27:04;7.55;;;6.22;;
48647;SDS011;34437;-33.956;151.076;2022-12-26T00:29:26;6.30;;;5.60;;
48647;SDS011;34437;-33.956;151.076;2022-12-26T00:31:49;5.82;;;5.13;;
48647;SDS011;34437;-33.956;151.076;2022-12-26T00:34:11;7.03;;;5.10;;
48647;SDS011;34437;-33.956;151.076;2022-12-26T00:36:34;6.03;;;4.78;;
48647;SDS011;34437;-33.956;151.076;2022-12-26T00:38:57;6.13;;;4.65;;
48647;SDS011;34437;-33.956;151.076;2022-12-26T00:41:20;5.80;;;4.80;;
48647;SDS011;34437;-33.956;151.076;2022-12-26T00:43:43;5.40;;;4.30;;
48647;SDS011;34437;-33.956;151.076;2022-12-26T00:46:06;5.15;;;4.30;;
48647;SDS011;34437;-33.956;151.076;2022-12-26T00:48:29;4.53;;;3.85;;
48647;SDS011;34437;-33.956;151.076;2022-12-26T00:50:52;4.90;;;3.40;;
48647;SDS011;34437;-33.956;151.076;2022-12-26T00:53:14;5.35;;;3.47;;
48647;SDS011;34437;-33.956;151.076;2022-12-26T10:22:19;0.98;;;0.45;;
48647;SDS011;34437;-33.956;151.076;2022-12-26T10:25:08;1.10;;;0.50;;
48647;SDS011;34437;-33.956;151.076;2022-12-26T10:27:42;1.27;;;0.82;;
48647;SDS011;34437;-33.956;151.076;2022-12-26T10:30:13;1.33;;;0.60;;
48647;SDS011;34437;-33.956;151.076;2022-12-26T10:32:45;1.30;;;0.65;;
48647;SDS011;34437;-33.956;151.076;2022-12-26T10:38:10;1.75;;;0.70;;
48647;SDS011;34437;-33.956;151.076;2022-12-26T10:40:50;1.05;;;0.52;;
48647;SDS011;34437;-33.956;151.076;2022-12-26T10:43:21;1.35;;;0.60;;
48647;SDS011;34437;-33.956;151.076;2022-12-26T10:45:48;1.23;;;0.57;;
48647;SDS011;34437;-33.956;151.076;2022-12-26T10:48:13;1.58;;;0.57;;
48647;SDS011;34437;-33.956;151.076;2022-12-26T10:50:37;1.30;;;0.63;;
48647;SDS011;34437;-33.956;151.076;2022-12-26T10:53:05;0.65;;;0.47;;
48647;SDS011;34437;-33.956;151.076;2022-12-26T10:55:33;1.65;;;0.70;;
48647;SDS011;34437;-33.956;151.076;2022-12-26T10:57:57;1.25;;;0.70;;
48647;SDS011;34437;-33.956;151.076;2022-12-26T11:00:27;1.58;;;0.60;;
48647;SDS011;34437;-33.956;151.076;2022-12-26T11:05:28;1.10;;;0.47;;
48647;SDS011;34437;-33.956;151.076;2022-12-26T11:10:26;2.00;;;0.73;;
48647;SDS011;34437;-33.956;151.076;2022-12-26T11:12:59;0.95;;;0.40;;
48647;SDS011;34437;-33.956;151.076;2022-12-26T11:17:52;1.25;;;0.60;;
48647;SDS011;34437;-33.956;151.076;2022-12-26T11:20:27;1.05;;;0.40;;
48647;SDS011;34437;-33.956;151.076;2022-12-26T11:22:51;0.45;;;0.40;;
48647;SDS011;34437;-33.956;151.076;2022-12-26T11:30:56;1.23;;;0.40;;
48647;SDS011;34437;-33.956;151.076;2022-12-26T11:33:26;1.65;;;0.50;;
48647;SDS011;34437;-33.956;151.076;2022-12-26T11:36:37;1.00;;;0.50;;
48647;SDS011;34437;-33.956;151.076;2022-12-26T11:38:47;0.88;;;0.47;;
48647;SDS011;34437;-33.956;151.076;2022-12-26T11:41:45;1.30;;;0.50;;
48647;SDS011;34437;-33.956;151.076;2022-12-26T11:51:47;1.05;;;0.63;;
48647;SDS011;34437;-33.956;151.076;2022-12-26T11:54:21;1.33;;;0.60;;
48647;SDS011;34437;-33.956;151.076;2022-12-26T11:56:58;1.55;;;0.50;;
48647;SDS011;34437;-33.956;151.076;2022-12-26T11:59:22;1.35;;;0.68;;
48647;SDS011;34437;-33.956;151.076;2022-12-26T12:01:45;1.20;;;0.60;;
48647;SDS011;34437;-33.956;151.076;2022-12-26T12:04:10;1.10;;;0.57;;
48647;SDS011;34437;-33.956;151.076;2022-12-26T12:15:30;4.10;;;1.17;;
48647;SDS011;34437;-33.956;151.076;2022-12-26T12:17:42;2.85;;;0.80;;
48647;SDS011;34437;-33.956;151.076;2022-12-26T12:20:23;3.95;;;1.10;;
48647;SDS011;34437;-33.956;151.076;2022-12-26T12:25:57;6.05;;;0.95;;
48647;SDS011;34437;-33.956;151.076;2022-12-26T12:36:47;4.05;;;0.98;;
48647;SDS011;34437;-33.956;151.076;2022-12-26T12:53:29;2.53;;;0.68;;
48647;SDS011;34437;-33.956;151.076;2022-12-26T12:56:02;6.70;;;1.08;;
48647;SDS011;34437;-33.956;151.076;2022-12-26T12:58:43;1.60;;;0.60;;
48647;SDS011;34437;-33.956;151.076;2022-12-26T13:01:29;1.20;;;0.65;;
48647;SDS011;34437;-33.956;151.076;2022-12-26T13:09:04;2.13;;;1.00;;
48647;SDS011;34437;-33.956;151.076;2022-12-26T13:11:39;2.80;;;0.70;;
48647;SDS011;34437;-33.956;151.076;2022-12-26T13:14:25;1.63;;;0.70;;
48647;SDS011;34437;-33.956;151.076;2022-12-26T13:19:36;2.25;;;0.90;;
48647;SDS011;34437;-33.956;151.076;2022-12-26T13:22:10;2.45;;;1.00;;
48647;SDS011;34437;-33.956;151.076;2022-12-26T13:24:51;3.15;;;1.00;;
48647;SDS011;34437;-33.956;151.076;2022-12-26T13:27:24;3.65;;;1.17;;
48647;SDS011;34437;-33.956;151.076;2022-12-26T13:29:56;4.22;;;1.35;;
48647;SDS011;34437;-33.956;151.076;2022-12-26T13:32:20;1.95;;;0.90;;
48647;SDS011;34437;-33.956;151.076;2022-12-26T13:34:54;2.67;;;1.10;;
48647;SDS011;34437;-33.956;151.076;2022-12-26T13:40:33;3.97;;;1.20;;
48647;SDS011;34437;-33.956;151.076;2022-12-26T13:45:54;2.95;;;0.90;;
48647;SDS011;34437;-33.956;151.076;2022-12-26T13:50:51;3.00;;;1.20;;
48647;SDS011;34437;-33.956;151.076;2022-12-26T14:01:31;2.83;;;0.70;;
48647;SDS011;34437;-33.956;151.076;2022-12-26T14:10:17;1.33;;;0.85;;
48647;SDS011;34437;-33.956;151.076;2022-12-26T14:13:12;2.33;;;1.08;;
48647;SDS011;34437;-33.956;151.076;2022-12-26T14:29:20;1.70;;;0.60;;
48647;SDS011;34437;-33.956;151.076;2022-12-26T14:43:01;2.35;;;0.90;;
48647;SDS011;34437;-33.956;151.076;2022-12-26T14:45:42;2.33;;;1.02;;
48647;SDS011;34437;-33.956;151.076;2022-12-26T14:50:38;2.53;;;1.27;;
48647;SDS011;34437;-33.956;151.076;2022-12-26T14:58:31;1.83;;;0.80;;
48647;SDS011;34437;-33.956;151.076;2022-12-26T15:14:44;2.60;;;0.93;;
48647;SDS011;34437;-33.956;151.076;2022-12-26T15:20:43;2.47;;;0.70;;
48647;SDS011;34437;-33.956;151.076;2022-12-26T15:37:33;4.07;;;1.23;;
48647;SDS011;34437;-33.956;151.076;2022-12-26T15:42:38;3.45;;;1.27;;
48647;SDS011;34437;-33.956;151.076;2022-12-26T15:45:19;4.25;;;0.93;;
48647;SDS011;34437;-33.956;151.076;2022-12-26T15:50:48;3.83;;;1.08;;
48647;SDS011;34437;-33.956;151.076;2022-12-26T15:53:24;4.78;;;1.25;;
48647;SDS011;34437;-33.956;151.076;2022-12-26T16:01:44;3.55;;;1.00;;
48647;SDS011;34437;-33.956;151.076;2022-12-26T16:04:52;3.08;;;1.10;;
48647;SDS011;34437;-33.956;151.076;2022-12-26T16:14:45;5.50;;;1.67;;
48647;SDS011;34437;-33.956;151.076;2022-12-26T16:17:19;2.70;;;1.10;;
48647;SDS011;34437;-33.956;151.076;2022-12-26T16:19:43;3.67;;;1.30;;
48647;SDS011;34437;-33.956;151.076;2022-12-26T16:22:07;2.75;;;1.08;;
48647;SDS011;34437;-33.956;151.076;2022-12-26T16:25:06;2.50;;;1.10;;
48647;SDS011;34437;-33.956;151.076;2022-12-26T16:27:30;3.08;;;1.27;;
48647;SDS011;34437;-33.956;151.076;2022-12-26T16:29:59;2.85;;;1.25;;
48647;SDS011;34437;-33.956;151.076;2022-12-26T16:32:28;2.88;;;1.30;;
48647;SDS011;34437;-33.956;151.076;2022-12-26T16:34:56;4.85;;;1.25;;
48647;SDS011;34437;-33.956;151.076;2022-12-26T16:37:20;3.80;;;1.20;;
48647;SDS011;34437;-33.956;151.076;2022-12-26T16:40:02;3.65;;;1.23;;
48647;SDS011;34437;-33.956;151.076;2022-12-26T16:42:37;2.75;;;0.98;;
48647;SDS011;34437;-33.956;151.076;2022-12-26T16:45:04;3.90;;;1.48;;
48647;SDS011;34437;-33.956;151.076;2022-12-26T16:47:38;2.97;;;1.00;;
48647;SDS011;34437;-33.956;151.076;2022-12-26T16:50:01;3.08;;;1.02;;
48647;SDS011;34437;-33.956;151.076;2022-12-26T16:54:55;3.63;;;1.45;;
48647;SDS011;34437;-33.956;151.076;2022-12-26T16:57:18;3.78;;;1.08;;
48647;SDS011;34437;-33.956;151.076;2022-12-26T17:04:52;1.73;;;0.95;;
48647;SDS011;34437;-33.956;151.076;2022-12-26T17:07:23;4.55;;;1.20;;
48647;SDS011;34437;-33.956;151.076;2022-12-26T17:09:51;4.03;;;1.83;;
48647;SDS011;34437;-33.956;151.076;2022-12-26T17:14:53;3.45;;;1.10;;
48647;SDS011;34437;-33.956;151.076;2022-12-26T17:19:42;3.25;;;1.27;;
48647;SDS011;34437;-33.956;151.076;2022-12-26T17:24:39;3.63;;;1.40;;
48647;SDS011;34437;-33.956;151.076;2022-12-26T17:29:46;4.50;;;1.30;;
48647;SDS011;34437;-33.956;151.076;2022-12-26T17:32:10;2.92;;;1.05;;
48647;SDS011;34437;-33.956;151.076;2022-12-26T17:34:53;2.78;;;1.25;;
48647;SDS011;34437;-33.956;151.076;2022-12-26T17:37:18;2.58;;;0.90;;
48647;SDS011;34437;-33.956;151.076;2022-12-26T17:39:42;2.55;;;0.90;;
48647;SDS011;34437;-33.956;151.076;2022-12-26T17:42:16;3.90;;;1.58;;
48647;SDS011;34437;-33.956;151.076;2022-12-26T17:47:12;4.18;;;1.20;;
48647;SDS011;34437;-33.956;151.076;2022-12-26T17:49:35;3.10;;;1.33;;
48647;SDS011;34437;-33.956;151.076;2022-12-26T17:51:57;2.53;;;1.00;;
48647;SDS011;34437;-33.956;151.076;2022-12-26T17:54:20;3.75;;;1.02;;
48647;SDS011;34437;-33.956;151.076;2022-12-26T17:56:42;3.42;;;1.30;;
48647;SDS011;34437;-33.956;151.076;2022-12-26T17:59:08;5.05;;;1.60;;
48647;SDS011;34437;-33.956;151.076;2022-12-26T18:01:34;3.65;;;1.27;;
48647;SDS011;34437;-33.956;151.076;2022-12-26T18:03:56;3.45;;;1.33;;
48647;SDS011;34437;-33.956;151.076;2022-12-26T18:06:18;3.90;;;1.27;;
48647;SDS011;34437;-33.956;151.076;2022-12-26T18:08:43;4.20;;;1.25;;
48647;SDS011;34437;-33.956;151.076;2022-12-26T18:11:08;2.17;;;1.00;;
48647;SDS011;34437;-33.956;151.076;2022-12-26T18:13:33;3.78;;;1.42;;
48647;SDS011;34437;-33.956;151.076;2022-12-26T18:15:56;2.30;;;0.93;;
48647;SDS011;34437;-33.956;151.076;2022-12-26T18:20:41;2.60;;;1.10;;
48647;SDS011;34437;-33.956;151.076;2022-12-26T18:23:04;2.90;;;1.27;;
48647;SDS011;34437;-33.956;151.076;2022-12-26T18:25:30;3.97;;;1.17;;
48647;SDS011;34437;-33.956;151.076;2022-12-26T18:27:52;5.28;;;1.20;;
48647;SDS011;34437;-33.956;151.076;2022-12-26T18:32:41;3.53;;;1.33;;
48647;SDS011;34437;-33.956;151.076;2022-12-26T18:35:04;4.22;;;1.48;;
48647;SDS011;34437;-33.956;151.076;2022-12-26T18:37:28;3.57;;;1.30;;
48647;SDS011;34437;-33.956;151.076;2022-12-26T18:39:50;3.00;;;1.25;;
48647;SDS011;34437;-33.956;151.076;2022-12-26T18:42:14;3.88;;;1.20;;
48647;SDS011;34437;-33.956;151.076;2022-12-26T18:44:37;3.58;;;1.40;;
48647;SDS011;34437;-33.956;151.076;2022-12-26T18:47:00;2.35;;;1.08;;
48647;SDS011;34437;-33.956;151.076;2022-12-26T18:49:22;2.67;;;1.27;;
48647;SDS011;34437;-33.956;151.076;2022-12-26T18:51:45;3.72;;;1.33;;
48647;SDS011;34437;-33.956;151.076;2022-12-26T18:54:07;6.05;;;1.40;;
48647;SDS011;34437;-33.956;151.076;2022-12-26T18:56:30;4.20;;;1.40;;
48647;SDS011;34437;-33.956;151.076;2022-12-26T18:58:52;3.72;;;1.30;;
48647;SDS011;34437;-33.956;151.076;2022-12-26T19:01:15;3.45;;;1.40;;
48647;SDS011;34437;-33.956;151.076;2022-12-26T19:03:39;10.75;;;2.45;;
48647;SDS011;34437;-33.956;151.076;2022-12-26T19:06:02;5.13;;;1.80;;
48647;SDS011;34437;-33.956;151.076;2022-12-26T19:08:25;5.22;;;1.63;;
48647;SDS011;34437;-33.956;151.076;2022-12-26T19:10:47;3.67;;;1.40;;
48647;SDS011;34437;-33.956;151.076;2022-12-26T19:13:10;3.50;;;1.20;;
48647;SDS011;34437;-33.956;151.076;2022-12-26T19:15:33;4.45;;;1.67;;
48647;SDS011;34437;-33.956;151.076;2022-12-26T19:17:56;4.22;;;1.52;;
48647;SDS011;34437;-33.956;151.076;2022-12-26T19:20:19;3.55;;;1.48;;
48647;SDS011;34437;-33.956;151.076;2022-12-26T19:22:43;3.20;;;1.40;;
48647;SDS011;34437;-33.956;151.076;2022-12-26T19:25:07;4.97;;;1.55;;
48647;SDS011;34437;-33.956;151.076;2022-12-26T19:27:29;3.35;;;1.50;;
48647;SDS011;34437;-33.956;151.076;2022-12-26T19:29:52;4.18;;;1.65;;
48647;SDS011;34437;-33.956;151.076;2022-12-26T19:32:14;2.97;;;1.48;;
48647;SDS011;34437;-33.956;151.076;2022-12-26T19:34:36;4.13;;;1.45;;
48647;SDS011;34437;-33.956;151.076;2022-12-26T19:36:59;4.97;;;1.65;;
48647;SDS011;34437;-33.956;151.076;2022-12-26T19:39:22;3.60;;;1.90;;
48647;SDS011;34437;-33.956;151.076;2022-12-26T19:41:45;4.07;;;1.73;;
48647;SDS011;34437;-33.956;151.076;2022-12-26T19:44:07;4.68;;;1.83;;
48647;SDS011;34437;-33.956;151.076;2022-12-26T19:46:30;4.85;;;1.60;;
48647;SDS011;34437;-33.956;151.076;2022-12-26T19:48:53;6.07;;;1.95;;
48647;SDS011;34437;-33.956;151.076;2022-12-26T19:51:16;3.53;;;1.52;;
48647;SDS011;34437;-33.956;151.076;2022-12-26T19:53:39;4.57;;;1.33;;
48647;SDS011;34437;-33.956;151.076;2022-12-26T19:56:13;5.03;;;1.55;;
48647;SDS011;34437;-33.956;151.076;2022-12-26T19:58:36;3.40;;;1.60;;
48647;SDS011;34437;-33.956;151.076;2022-12-26T20:01:05;3.72;;;1.60;;
48647;SDS011;34437;-33.956;151.076;2022-12-26T20:03:29;4.65;;;1.60;;
48647;SDS011;34437;-33.956;151.076;2022-12-26T20:05:51;4.65;;;1.75;;
48647;SDS011;34437;-33.956;151.076;2022-12-26T20:08:13;5.43;;;2.25;;
48647;SDS011;34437;-33.956;151.076;2022-12-26T20:10:36;5.63;;;1.95;;
48647;SDS011;34437;-33.956;151.076;2022-12-26T20:12:58;5.82;;;1.88;;
48647;SDS011;34437;-33.956;151.076;2022-12-26T20:15:21;4.10;;;1.80;;
48647;SDS011;34437;-33.956;151.076;2022-12-26T20:17:43;5.32;;;2.00;;
48647;SDS011;34437;-33.956;151.076;2022-12-26T20:20:06;4.93;;;2.28;;
48647;SDS011;34437;-33.956;151.076;2022-12-26T20:22:29;5.27;;;2.00;;
48647;SDS011;34437;-33.956;151.076;2022-12-26T20:24:51;7.32;;;2.65;;
48647;SDS011;34437;-33.956;151.076;2022-12-26T20:27:14;5.07;;;2.40;;
48647;SDS011;34437;-33.956;151.076;2022-12-26T20:29:37;3.40;;;2.13;;
48647;SDS011;34437;-33.956;151.076;2022-12-26T20:32:00;6.80;;;2.60;;
48647;SDS011;34437;-33.956;151.076;2022-12-26T20:34:22;4.15;;;2.20;;
48647;SDS011;34437;-33.956;151.076;2022-12-26T20:36:44;6.05;;;2.65;;
48647;SDS011;34437;-33.956;151.076;2022-12-26T20:39:09;4.25;;;2.55;;
48647;SDS011;34437;-33.956;151.076;2022-12-26T20:41:35;3.90;;;2.10;;
48647;SDS011;34437;-33.956;151.076;2022-12-26T20:43:57;5.53;;;2.40;;
48647;SDS011;34437;-33.956;151.076;2022-12-26T20:46:21;3.78;;;2.35;;
48647;SDS011;34437;-33.956;151.076;2022-12-26T20:48:45;3.58;;;2.40;;
48647;SDS011;34437;-33.956;151.076;2022-12-26T20:51:13;4.88;;;2.40;;
48647;SDS011;34437;-33.956;151.076;2022-12-26T20:53:38;3.33;;;2.28;;
48647;SDS011;34437;-33.956;151.076;2022-12-26T20:56:00;4.47;;;2.38;;
48647;SDS011;34437;-33.956;151.076;2022-12-26T20:58:24;4.10;;;2.42;;
48647;SDS011;34437;-33.956;151.076;2022-12-26T21:01:00;4.65;;;2.75;;
48647;SDS011;34437;-33.956;151.076;2022-12-26T21:03:28;3.85;;;2.78;;
48647;SDS011;34437;-33.956;151.076;2022-12-26T21:05:51;4.38;;;3.17;;
48647;SDS011;34437;-33.956;151.076;2022-12-26T21:08:14;7.07;;;2.50;;
48647;SDS011;34437;-33.956;151.076;2022-12-26T21:10:36;5.28;;;3.10;;
48647;SDS011;34437;-33.956;151.076;2022-12-26T21:12:59;3.80;;;2.70;;
48647;SDS011;34437;-33.956;151.076;2022-12-26T21:15:21;3.13;;;2.15;;
48647;SDS011;34437;-33.956;151.076;2022-12-26T21:17:44;4.70;;;2.55;;
48647;SDS011;34437;-33.956;151.076;2022-12-26T21:20:06;4.03;;;2.70;;
48647;SDS011;34437;-33.956;151.076;2022-12-26T21:22:29;4.67;;;2.60;;
48647;SDS011;34437;-33.956;151.076;2022-12-26T21:24:51;4.28;;;2.42;;
48647;SDS011;34437;-33.956;151.076;2022-12-26T21:27:14;4.05;;;2.40;;
48647;SDS011;34437;-33.956;151.076;2022-12-26T21:29:36;3.30;;;2.28;;
48647;SDS011;34437;-33.956;151.076;2022-12-26T21:32:00;3.92;;;2.30;;
48647;SDS011;34437;-33.956;151.076;2022-12-26T21:34:24;3.75;;;2.33;;
48647;SDS011;34437;-33.956;151.076;2022-12-26T21:36:48;3.83;;;2.38;;
48647;SDS011;34437;-33.956;151.076;2022-12-26T21:39:29;3.25;;;2.10;;
48647;SDS011;34437;-33.956;151.076;2022-12-26T21:44:14;3.97;;;2.30;;
48647;SDS011;34437;-33.956;151.076;2022-12-26T21:46:37;3.58;;;2.00;;
48647;SDS011;34437;-33.956;151.076;2022-12-26T21:48:59;3.75;;;2.05;;
48647;SDS011;34437;-33.956;151.076;2022-12-26T21:51:22;3.78;;;2.28;;
48647;SDS011;34437;-33.956;151.076;2022-12-26T21:56:09;5.85;;;2.42;;
48647;SDS011;34437;-33.956;151.076;2022-12-26T21:58:32;3.67;;;2.15;;
48647;SDS011;34437;-33.956;151.076;2022-12-26T22:01:19;3.83;;;2.35;;
48647;SDS011;34437;-33.956;151.076;2022-12-26T22:03:42;3.35;;;2.17;;
48647;SDS011;34437;-33.956;151.076;2022-12-26T22:06:23;2.85;;;1.92;;
48647;SDS011;34437;-33.956;151.076;2022-12-26T22:08:45;3.20;;;2.00;;
48647;SDS011;34437;-33.956;151.076;2022-12-26T22:11:10;3.58;;;2.15;;
48647;SDS011;34437;-33.956;151.076;2022-12-26T22:13:56;4.00;;;2.35;;
48647;SDS011;34437;-33.956;151.076;2022-12-26T22:16:18;4.75;;;2.30;;
48647;SDS011;34437;-33.956;151.076;2022-12-26T22:18:42;2.83;;;2.20;;
48647;SDS011;34437;-33.956;151.076;2022-12-26T22:21:07;4.15;;;2.10;;
48647;SDS011;34437;-33.956;151.076;2022-12-26T22:23:31;3.88;;;2.42;;
48647;SDS011;34437;-33.956;151.076;2022-12-26T22:25:54;3.88;;;2.63;;
48647;SDS011;34437;-33.956;151.076;2022-12-26T22:28:17;3.90;;;2.70;;
48647;SDS011;34437;-33.956;151.076;2022-12-26T22:30:44;4.70;;;2.97;;
48647;SDS011;34437;-33.956;151.076;2022-12-26T22:33:08;4.13;;;2.97;;
48647;SDS011;34437;-33.956;151.076;2022-12-26T22:35:31;5.22;;;3.45;;
48647;SDS011;34437;-33.956;151.076;2022-12-26T22:37:56;5.88;;;3.10;;
48647;SDS011;34437;-33.956;151.076;2022-12-26T22:40:18;6.85;;;3.33;;
48647;SDS011;34437;-33.956;151.076;2022-12-26T22:42:41;5.30;;;3.00;;
48647;SDS011;34437;-33.956;151.076;2022-12-26T22:45:03;5.60;;;2.80;;
48647;SDS011;34437;-33.956;151.076;2022-12-26T22:47:26;5.80;;;2.72;;
48647;SDS011;34437;-33.956;151.076;2022-12-26T22:49:49;6.78;;;2.83;;
48647;SDS011;34437;-33.956;151.076;2022-12-26T22:52:11;4.68;;;2.60;;
48647;SDS011;34437;-33.956;151.076;2022-12-26T22:54:33;5.80;;;2.72;;
48647;SDS011;34437;-33.956;151.076;2022-12-26T22:56:56;4.45;;;2.75;;
48647;SDS011;34437;-33.956;151.076;2022-12-26T22:59:18;5.50;;;2.80;;
48647;SDS011;34437;-33.956;151.076;2022-12-26T23:01:42;4.75;;;3.78;;
48647;SDS011;34437;-33.956;151.076;2022-12-26T23:04:05;5.65;;;3.53;;
48647;SDS011;34437;-33.956;151.076;2022-12-26T23:06:29;5.03;;;3.05;;
48647;SDS011;34437;-33.956;151.076;2022-12-26T23:08:54;6.35;;;3.90;;
48647;SDS011;34437;-33.956;151.076;2022-12-26T23:11:18;5.38;;;3.22;;
48647;SDS011;34437;-33.956;151.076;2022-12-26T23:13:41;5.53;;;3.45;;
48647;SDS011;34437;-33.956;151.076;2022-12-26T23:16:12;5.68;;;3.90;;
48647;SDS011;34437;-33.956;151.076;2022-12-26T23:18:44;6.15;;;3.58;;
48647;SDS011;34437;-33.956;151.076;2022-12-26T23:21:31;6.20;;;3.28;;
48647;SDS011;34437;-33.956;151.076;2022-12-26T23:24:11;5.30;;;3.65;;
48647;SDS011;34437;-33.956;151.076;2022-12-26T23:26:39;3.97;;;3.22;;
48647;SDS011;34437;-33.956;151.076;2022-12-26T23:29:03;4.55;;;3.40;;
48647;SDS011;34437;-33.956;151.076;2022-12-26T23:31:44;5.32;;;3.40;;
48647;SDS011;34437;-33.956;151.076;2022-12-26T23:34:06;3.92;;;3.22;;
48647;SDS011;34437;-33.956;151.076;2022-12-26T23:36:29;5.22;;;3.45;;
48647;SDS011;34437;-33.956;151.076;2022-12-26T23:38:52;5.57;;;3.28;;
48647;SDS011;34437;-33.956;151.076;2022-12-26T23:41:14;5.05;;;2.92;;
48647;SDS011;34437;-33.956;151.076;2022-12-26T23:43:37;3.33;;;2.78;;
48647;SDS011;34437;-33.956;151.076;2022-12-26T23:45:59;7.03;;;3.28;;
48647;SDS011;34437;-33.956;151.076;2022-12-26T23:48:22;3.33;;;2.45;;
48647;SDS011;34437;-33.956;151.076;2022-12-26T23:50:44;5.28;;;2.47;;
48647;SDS011;34437;-33.956;151.076;2022-12-26T23:53:07;2.08;;;1.52;;
48647;SDS011;34437;-33.956;151.076;2022-12-26T23:55:29;3.45;;;1.90;;
48647;SDS011;34437;-33.956;151.076;2022-12-26T23:57:53;3.20;;;1.92;;
